createdAt,value
2022-11-21T00:00:34.350Z,1.58
2022-11-21T00:03:02.019Z,2.67
2022-11-21T00:05:30.378Z,1.50
2022-11-21T00:07:57.875Z,2.45
2022-11-21T00:10:26.212Z,2.50
2022-11-21T00:12:57.045Z,2.15
2022-11-21T00:15:25.653Z,1.60
2022-11-21T00:17:52.870Z,1.90
2022-11-21T00:20:21.357Z,3.13
2022-11-21T00:22:49.076Z,1.55
2022-11-21T00:25:16.132Z,2.03
2022-11-21T00:27:42.958Z,1.70
2022-11-21T00:30:11.449Z,2.58
2022-11-21T00:32:38.506Z,2.90
2022-11-21T00:35:06.006Z,1.85
2022-11-21T00:37:34.312Z,2.58
2022-11-21T00:40:01.216Z,3.15
2022-11-21T00:42:27.905Z,2.42
2022-11-21T00:44:54.635Z,4.47
2022-11-21T00:47:21.519Z,3.78
2022-11-21T00:49:48.270Z,2.03
2022-11-21T00:52:16.019Z,4.45
2022-11-21T00:54:42.692Z,2.25
2022-11-21T00:57:09.402Z,2.33
2022-11-21T00:59:36.152Z,3.97
2022-11-21T01:02:02.851Z,2.35
2022-11-21T01:04:34.176Z,3.72
2022-11-21T01:07:01.310Z,2.55
2022-11-21T01:09:28.770Z,2.28
2022-11-21T01:11:56.311Z,2.75
2022-11-21T01:14:23.551Z,2.40
2022-11-21T01:16:50.373Z,3.13
2022-11-21T01:19:17.115Z,4.50
2022-11-21T01:21:43.833Z,2.50
2022-11-21T01:24:11.705Z,3.85
2022-11-21T01:26:39.129Z,3.40
2022-11-21T01:29:07.115Z,4.13
2022-11-21T01:31:33.926Z,3.00
2022-11-21T01:34:01.418Z,2.50
2022-11-21T01:36:33.486Z,2.95
2022-11-21T01:39:02.762Z,2.47
2022-11-21T01:41:33.722Z,2.75
2022-11-21T01:44:15.189Z,2.85
2022-11-21T01:46:41.881Z,2.10
2022-11-21T01:49:13.562Z,3.47
2022-11-21T01:51:49.149Z,1.67
2022-11-21T01:54:23.849Z,2.00
2022-11-21T01:56:59.759Z,4.53
2022-11-21T01:59:32.058Z,2.58
2022-11-21T02:02:01.377Z,1.83
2022-11-21T02:04:31.101Z,2.33
2022-11-21T02:06:59.413Z,2.25
2022-11-21T02:09:26.562Z,3.40
2022-11-21T02:11:58.386Z,2.67
2022-11-21T02:14:26.186Z,2.65
2022-11-21T02:16:56.789Z,2.00
2022-11-21T02:19:57.373Z,2.40
2022-11-21T02:22:52.393Z,1.00
2022-11-21T02:25:26.212Z,1.60
2022-11-21T02:27:58.691Z,2.92
2022-11-21T02:30:27.899Z,3.33
2022-11-21T02:32:55.655Z,2.40
2022-11-21T02:35:22.444Z,2.35
2022-11-21T02:37:59.155Z,1.95
2022-11-21T02:40:30.798Z,1.77
2022-11-21T02:43:06.778Z,3.92
2022-11-21T02:45:42.383Z,3.47
2022-11-21T02:48:09.596Z,6.32
2022-11-21T02:50:41.445Z,2.25
2022-11-21T02:53:10.264Z,3.38
2022-11-21T02:55:38.115Z,5.32
2022-11-21T02:58:05.828Z,4.93
2022-11-21T03:00:34.075Z,2.67
2022-11-21T03:03:01.137Z,4.43
2022-11-21T03:05:28.435Z,9.05
2022-11-21T03:07:55.240Z,7.32
2022-11-21T03:10:22.019Z,6.30
2022-11-21T03:12:48.708Z,6.22
2022-11-21T03:15:16.267Z,7.45
2022-11-21T03:17:43.655Z,5.65
2022-11-21T03:20:11.222Z,4.95
2022-11-21T03:22:38.039Z,6.82
2022-11-21T03:25:05.099Z,3.97
2022-11-21T03:27:32.147Z,7.25
2022-11-21T03:29:58.855Z,5.90
2022-11-21T03:32:25.637Z,4.43
2022-11-21T03:34:52.345Z,6.35
2022-11-21T03:37:19.066Z,6.38
2022-11-21T03:39:45.928Z,8.38
2022-11-21T03:42:12.995Z,7.15
2022-11-21T03:44:39.779Z,8.77
2022-11-21T03:47:06.568Z,5.22
2022-11-21T03:49:33.257Z,4.40
2022-11-21T03:52:00.045Z,6.38
2022-11-21T03:54:27.157Z,8.02
2022-11-21T03:56:54.136Z,5.47
2022-11-21T03:59:20.983Z,4.45
2022-11-21T04:01:47.834Z,2.72
2022-11-21T04:04:14.617Z,4.55
2022-11-21T04:06:41.337Z,4.40
2022-11-21T04:09:08.006Z,2.55
2022-11-21T04:11:34.757Z,3.08
2022-11-21T04:14:01.573Z,3.72
2022-11-21T04:16:28.247Z,5.57
2022-11-21T04:18:54.960Z,4.88
2022-11-21T04:21:21.846Z,3.13
2022-11-21T04:23:48.561Z,5.82
2022-11-21T04:26:15.319Z,5.22
2022-11-21T04:28:42.129Z,3.80
2022-11-21T04:31:11.331Z,3.05
2022-11-21T04:33:41.684Z,3.95
2022-11-21T04:36:09.212Z,3.80
2022-11-21T04:38:36.481Z,6.53
2022-11-21T04:41:03.404Z,2.97
2022-11-21T04:43:30.157Z,2.22
2022-11-21T04:45:56.929Z,2.95
2022-11-21T04:48:24.787Z,2.63
2022-11-21T04:50:51.770Z,1.27
2022-11-21T04:53:18.507Z,1.60
2022-11-21T04:55:45.280Z,0.90
2022-11-21T04:58:12.101Z,1.25
2022-11-21T05:00:38.808Z,1.50
2022-11-21T05:03:06.928Z,1.25
2022-11-21T05:05:34.140Z,1.13
2022-11-21T05:08:01.231Z,2.28
2022-11-21T05:10:27.928Z,1.92
2022-11-21T05:13:22.731Z,3.33
2022-11-21T05:15:52.744Z,1.88
2022-11-21T05:18:20.047Z,2.17
2022-11-21T05:20:46.963Z,2.40
2022-11-21T05:23:14.047Z,2.35
2022-11-21T05:25:40.791Z,2.03
2022-11-21T05:28:07.516Z,2.95
2022-11-21T05:30:34.314Z,2.88
2022-11-21T05:33:01.074Z,1.90
2022-11-21T05:35:27.756Z,4.05
2022-11-21T05:37:58.505Z,3.50
2022-11-21T05:40:25.677Z,3.63
2022-11-21T05:43:10.967Z,2.63
2022-11-21T05:45:37.689Z,3.15
2022-11-21T05:48:07.918Z,3.13
2022-11-21T05:50:37.737Z,2.80
2022-11-21T05:53:05.263Z,2.45
2022-11-21T05:55:34.381Z,3.58
2022-11-21T05:58:01.447Z,1.90
2022-11-21T06:00:29.203Z,2.13
2022-11-21T06:03:14.684Z,1.70
2022-11-21T06:05:41.769Z,2.90
2022-11-21T06:08:08.616Z,1.30
2022-11-21T06:10:35.561Z,2.90
2022-11-21T06:13:03.527Z,1.92
2022-11-21T06:15:31.330Z,1.40
2022-11-21T06:18:00.568Z,2.05
2022-11-21T06:20:27.315Z,3.15
2022-11-21T06:22:54.052Z,1.27
2022-11-21T06:25:20.752Z,1.60
2022-11-21T06:27:47.522Z,2.30
2022-11-21T06:30:17.714Z,2.58
2022-11-21T06:35:15.890Z,3.42
2022-11-21T06:37:42.671Z,1.67
2022-11-21T06:40:10.303Z,3.83
2022-11-21T06:42:37.097Z,3.28
2022-11-21T06:45:04.114Z,4.53
2022-11-21T06:47:34.638Z,6.32
2022-11-21T06:50:01.653Z,3.40
2022-11-21T06:52:28.403Z,3.83
2022-11-21T06:54:55.124Z,6.28
2022-11-21T06:57:21.805Z,9.98
2022-11-21T06:59:48.611Z,7.53
2022-11-21T07:02:15.639Z,5.93
2022-11-21T07:04:42.311Z,7.10
2022-11-21T07:07:09.048Z,8.18
2022-11-21T07:09:36.909Z,4.97
2022-11-21T07:12:22.291Z,4.60
2022-11-21T07:14:49.033Z,4.20
2022-11-21T07:17:15.990Z,5.72
2022-11-21T07:19:42.780Z,6.03
2022-11-21T07:22:09.572Z,3.67
2022-11-21T07:24:36.356Z,4.50
2022-11-21T07:27:03.296Z,6.00
2022-11-21T07:29:30.271Z,7.55
2022-11-21T07:31:57.349Z,9.57
2022-11-21T07:34:24.025Z,9.80
2022-11-21T07:36:50.693Z,7.00
2022-11-21T07:39:17.411Z,5.18
2022-11-21T07:41:44.185Z,5.80
2022-11-21T07:44:10.944Z,4.20
2022-11-21T07:46:38.116Z,4.40
2022-11-21T07:49:06.018Z,5.15
2022-11-21T07:51:33.425Z,3.75
2022-11-21T07:54:00.259Z,6.07
2022-11-21T07:56:27.076Z,4.28
2022-11-21T07:58:53.837Z,4.35
2022-11-21T08:01:21.396Z,10.48
2022-11-21T08:03:48.197Z,5.18
2022-11-21T08:06:15.274Z,4.13
2022-11-21T08:08:42.026Z,4.63
2022-11-21T08:11:08.773Z,4.32
2022-11-21T08:13:35.752Z,5.43
2022-11-21T08:16:04.431Z,7.47
2022-11-21T08:18:31.829Z,4.30
2022-11-21T08:21:02.831Z,5.15
2022-11-21T08:23:29.991Z,5.93
2022-11-21T08:25:56.780Z,4.88
2022-11-21T08:28:23.619Z,4.88
2022-11-21T08:30:50.490Z,3.90
2022-11-21T08:33:17.612Z,6.05
2022-11-21T08:35:44.336Z,3.25
2022-11-21T08:38:11.282Z,5.53
2022-11-21T08:40:38.046Z,11.90
2022-11-21T08:43:07.362Z,4.05
2022-11-21T08:45:35.672Z,4.47
2022-11-21T08:48:03.140Z,5.95
2022-11-21T08:50:30.026Z,8.70
2022-11-21T08:53:04.179Z,7.25
2022-11-21T08:55:31.559Z,3.75
2022-11-21T08:57:58.605Z,6.90
2022-11-21T09:00:25.687Z,3.40
2022-11-21T09:02:52.500Z,4.20
2022-11-21T09:05:19.204Z,5.90
2022-11-21T09:07:47.302Z,6.50
2022-11-21T09:10:14.684Z,6.57
2022-11-21T09:12:41.469Z,5.03
2022-11-21T09:15:29.274Z,3.65
2022-11-21T09:18:07.601Z,4.72
2022-11-21T09:20:39.719Z,2.97
2022-11-21T09:23:09.037Z,2.53
2022-11-21T09:25:36.152Z,3.05
2022-11-21T09:28:05.022Z,3.90
2022-11-21T09:30:31.911Z,5.57
2022-11-21T09:33:02.738Z,5.70
2022-11-21T09:35:30.105Z,4.50
2022-11-21T09:37:57.872Z,3.42
2022-11-21T09:40:25.380Z,2.58
2022-11-21T09:43:14.104Z,3.10
2022-11-21T09:45:50.600Z,3.70
2022-11-21T09:48:46.710Z,3.17
2022-11-21T09:51:16.524Z,3.35
2022-11-21T09:54:01.013Z,5.93
2022-11-21T09:56:31.551Z,4.57
2022-11-21T09:59:11.635Z,3.40
2022-11-21T10:01:39.111Z,3.42
2022-11-21T10:04:05.984Z,5.40
2022-11-21T10:06:42.891Z,4.13
2022-11-21T10:09:18.588Z,6.40
2022-11-21T10:12:25.951Z,2.90
2022-11-21T10:15:07.716Z,4.65
2022-11-21T10:17:46.419Z,2.90
2022-11-21T10:20:31.100Z,2.63
2022-11-21T10:23:20.136Z,2.97
2022-11-21T10:26:04.366Z,3.15
2022-11-21T10:28:57.243Z,4.75
2022-11-21T10:31:25.695Z,3.55
2022-11-21T10:33:56.876Z,3.63
2022-11-21T10:36:29.441Z,4.47
2022-11-21T10:39:01.457Z,3.70
2022-11-21T10:41:28.300Z,1.83
2022-11-21T10:44:16.859Z,7.78
2022-11-21T10:47:00.637Z,5.85
2022-11-21T10:49:32.462Z,2.25
2022-11-21T10:52:20.009Z,2.00
2022-11-21T10:55:07.846Z,5.47
2022-11-21T10:57:49.002Z,5.75
2022-11-21T11:00:27.233Z,2.05
2022-11-21T11:02:57.093Z,3.70
2022-11-21T11:05:26.583Z,7.07
2022-11-21T11:08:19.671Z,2.30
2022-11-21T11:11:05.187Z,3.28
2022-11-21T11:13:45.966Z,3.35
2022-11-21T11:16:15.339Z,2.85
2022-11-21T11:18:57.226Z,2.60
2022-11-21T11:21:27.245Z,4.28
2022-11-21T11:23:55.287Z,4.70
2022-11-21T11:26:28.638Z,4.18
2022-11-21T11:29:25.718Z,5.93
2022-11-21T11:31:57.618Z,3.40
2022-11-21T11:34:27.383Z,3.20
2022-11-21T11:37:10.989Z,4.78
2022-11-21T11:39:58.655Z,4.35
2022-11-21T11:43:08.239Z,7.15
2022-11-21T11:46:19.791Z,4.53
2022-11-21T11:49:16.751Z,2.80
2022-11-21T11:51:56.612Z,4.97
2022-11-21T11:54:55.732Z,5.03
2022-11-21T11:57:23.001Z,8.73
2022-11-21T12:00:16.712Z,5.38
2022-11-21T12:03:02.065Z,3.13
2022-11-21T12:05:30.973Z,5.15
2022-11-21T12:08:40.894Z,3.30
2022-11-21T12:11:39.985Z,5.05
2022-11-21T12:14:59.816Z,3.97
2022-11-21T12:17:37.132Z,3.53
2022-11-21T12:20:13.858Z,3.88
2022-11-21T12:22:41.007Z,4.20
2022-11-21T12:25:12.716Z,3.88
2022-11-21T12:27:42.010Z,4.35
2022-11-21T12:30:28.047Z,3.95
2022-11-21T12:33:11.623Z,4.68
2022-11-21T12:35:44.561Z,4.32
2022-11-21T12:38:44.537Z,5.03
2022-11-21T12:41:46.670Z,3.22
2022-11-21T12:44:31.898Z,5.45
2022-11-21T12:47:01.623Z,7.55
2022-11-21T12:49:55.310Z,5.18
2022-11-21T12:52:52.973Z,2.58
2022-11-21T12:55:42.108Z,4.15
2022-11-21T12:58:17.886Z,4.55
2022-11-21T13:00:56.704Z,4.28
2022-11-21T13:03:29.050Z,6.25
2022-11-21T13:05:58.917Z,3.95
2022-11-21T13:08:34.792Z,5.68
2022-11-21T13:11:21.475Z,6.15
2022-11-21T13:13:55.802Z,6.57
2022-11-21T13:16:39.749Z,7.18
2022-11-21T13:19:25.156Z,7.83
2022-11-21T13:21:56.175Z,9.45
2022-11-21T13:24:44.971Z,6.20
2022-11-21T13:27:27.518Z,4.75
2022-11-21T13:30:10.627Z,6.10
2022-11-21T13:32:55.827Z,3.33
2022-11-21T13:35:22.577Z,3.83
2022-11-21T13:37:52.569Z,3.22
2022-11-21T13:41:00.163Z,5.75
2022-11-21T13:43:33.708Z,3.60
2022-11-21T13:46:01.439Z,4.65
2022-11-21T13:48:38.774Z,5.13
2022-11-21T13:51:27.611Z,3.95
2022-11-21T13:54:25.092Z,2.95
2022-11-21T13:57:00.583Z,4.32
2022-11-21T13:59:56.561Z,7.25
2022-11-21T14:02:45.102Z,5.53
2022-11-21T14:05:23.675Z,5.10
2022-11-21T14:07:51.174Z,5.32
2022-11-21T14:10:34.232Z,5.32
2022-11-21T14:13:03.292Z,3.70
2022-11-21T14:16:13.104Z,5.43
2022-11-21T14:18:43.801Z,4.53
2022-11-21T14:21:29.469Z,4.45
2022-11-21T14:24:04.475Z,6.13
2022-11-21T14:26:47.971Z,4.00
2022-11-21T14:29:39.181Z,5.65
2022-11-21T14:32:06.306Z,4.95
2022-11-21T14:34:34.257Z,5.03
2022-11-21T14:37:06.028Z,3.90
2022-11-21T14:39:44.808Z,10.82
2022-11-21T14:42:15.277Z,5.20
2022-11-21T14:44:42.799Z,6.55
2022-11-21T14:47:25.901Z,3.95
2022-11-21T14:49:55.390Z,3.63
2022-11-21T14:52:29.075Z,4.70
2022-11-21T14:57:45.152Z,4.72
2022-11-21T15:00:43.142Z,5.75
2022-11-21T15:03:03.653Z,4.72
2022-11-21T15:06:00.817Z,7.45
2022-11-21T15:09:03.219Z,6.18
2022-11-21T15:11:15.245Z,5.22
2022-11-21T15:14:14.277Z,12.57
2022-11-21T15:16:36.126Z,5.15
2022-11-21T15:19:09.786Z,4.93
2022-11-21T15:21:36.672Z,8.63
2022-11-21T15:24:28.988Z,5.32
2022-11-21T15:26:55.827Z,11.23
2022-11-21T15:29:22.713Z,22.92
2022-11-21T15:32:15.708Z,15.75
2022-11-21T15:34:43.136Z,22.75
2022-11-21T15:37:16.403Z,12.45
2022-11-21T15:39:45.369Z,7.85
2022-11-21T15:42:33.887Z,12.88
2022-11-21T15:45:02.676Z,8.30
2022-11-21T15:47:29.526Z,7.28
2022-11-21T15:49:56.307Z,11.27
2022-11-21T15:52:23.681Z,5.65
2022-11-21T15:54:50.421Z,4.93
2022-11-21T15:59:50.598Z,4.60
2022-11-21T16:02:17.375Z,4.80
2022-11-21T16:04:44.270Z,4.28
2022-11-21T16:07:11.055Z,3.15
2022-11-21T16:09:39.045Z,5.38
2022-11-21T16:12:06.062Z,6.38
2022-11-21T16:14:32.746Z,6.25
2022-11-21T16:16:59.493Z,7.72
2022-11-21T16:19:26.410Z,6.68
2022-11-21T16:21:53.822Z,10.55
2022-11-21T16:24:20.662Z,5.97
2022-11-21T16:26:49.304Z,4.82
2022-11-21T16:29:16.087Z,7.95
2022-11-21T16:31:42.913Z,6.32
2022-11-21T16:34:09.632Z,10.85
2022-11-21T16:36:36.388Z,7.50
2022-11-21T16:39:08.709Z,7.28
2022-11-21T16:41:36.309Z,8.50
2022-11-21T16:44:03.339Z,10.82
2022-11-21T16:46:30.306Z,9.32
2022-11-21T16:49:02.425Z,11.68
2022-11-21T16:51:30.132Z,6.50
2022-11-21T16:53:59.689Z,5.63
2022-11-21T16:56:29.982Z,7.78
2022-11-21T16:58:56.694Z,9.27
2022-11-21T17:01:25.497Z,10.50
2022-11-21T17:03:52.626Z,9.00
2022-11-21T17:06:22.409Z,7.72
2022-11-21T17:08:49.155Z,8.32
2022-11-21T17:11:16.868Z,8.52
2022-11-21T17:13:44.471Z,7.80
2022-11-21T17:16:12.232Z,7.15
2022-11-21T17:18:39.391Z,6.50
2022-11-21T17:21:08.979Z,7.18
2022-11-21T17:23:38.151Z,9.38
2022-11-21T17:26:07.572Z,10.52
2022-11-21T17:28:34.664Z,10.65
2022-11-21T17:31:12.738Z,15.07
2022-11-21T17:33:39.510Z,14.23
2022-11-21T17:36:11.049Z,11.75
2022-11-21T17:38:38.613Z,10.55
2022-11-21T17:41:07.528Z,9.50
2022-11-21T17:43:34.937Z,10.15
2022-11-21T17:46:09.391Z,9.40
2022-11-21T17:48:37.450Z,10.70
2022-11-21T17:51:06.505Z,8.15
2022-11-21T17:53:36.266Z,8.43
2022-11-21T17:56:05.939Z,9.02
2022-11-21T17:58:33.594Z,7.43
2022-11-21T18:01:02.661Z,10.48
2022-11-21T18:03:30.169Z,9.23
2022-11-21T18:06:07.678Z,9.65
2022-11-21T18:08:36.750Z,11.27
2022-11-21T18:11:04.256Z,6.50
2022-11-21T18:13:32.242Z,8.23
2022-11-21T18:16:04.676Z,8.52
2022-11-21T18:18:35.913Z,9.80
2022-11-21T18:21:08.207Z,8.68
2022-11-21T18:23:35.316Z,9.32
2022-11-21T18:26:12.120Z,8.57
2022-11-21T18:28:39.017Z,6.60
2022-11-21T18:31:08.334Z,8.43
2022-11-21T18:33:36.013Z,9.80
2022-11-21T18:36:04.549Z,7.70
2022-11-21T18:38:57.804Z,9.15
2022-11-21T18:41:25.036Z,8.55
2022-11-21T18:43:57.584Z,8.30
2022-11-21T18:46:26.060Z,10.20
2022-11-21T18:49:04.606Z,7.05
2022-11-21T18:51:33.241Z,5.85
2022-11-21T18:54:08.366Z,7.60
2022-11-21T18:56:36.814Z,7.07
2022-11-21T18:59:05.878Z,8.65
2022-11-21T19:01:34.264Z,6.95
2022-11-21T19:04:01.096Z,8.13
2022-11-21T19:06:28.644Z,6.68
2022-11-21T19:08:57.191Z,6.45
2022-11-21T19:11:28.880Z,7.63
2022-11-21T19:13:56.942Z,6.38
2022-11-21T19:16:26.305Z,5.18
2022-11-21T19:21:43.352Z,9.07
2022-11-21T19:24:13.298Z,4.63
2022-11-21T19:26:41.055Z,7.10
2022-11-21T19:29:08.203Z,5.13
2022-11-21T19:31:39.324Z,7.25
2022-11-21T19:34:11.344Z,6.13
2022-11-21T19:36:39.494Z,4.65
2022-11-21T19:39:06.327Z,4.15
2022-11-21T19:41:32.996Z,4.55
2022-11-21T19:44:00.571Z,5.15
2022-11-21T19:46:33.669Z,5.72
2022-11-21T19:49:01.255Z,5.80
2022-11-21T19:51:34.842Z,4.15
2022-11-21T19:54:06.441Z,9.10
2022-11-21T19:56:33.748Z,5.93
2022-11-21T19:59:00.655Z,5.65
2022-11-21T20:01:29.597Z,5.90
2022-11-21T20:03:58.950Z,5.18
2022-11-21T20:06:31.555Z,5.43
2022-11-21T20:09:00.751Z,5.25
2022-11-21T20:11:29.158Z,6.63
2022-11-21T20:13:56.116Z,4.93
2022-11-21T20:16:29.795Z,5.10
2022-11-21T20:19:02.460Z,4.63
2022-11-21T20:21:29.723Z,5.53
2022-11-21T20:23:56.671Z,4.70
2022-11-21T20:26:24.700Z,4.65
2022-11-21T20:28:51.803Z,4.72
2022-11-21T20:31:21.681Z,4.45
2022-11-21T20:33:53.862Z,5.15
2022-11-21T20:36:22.830Z,9.32
2022-11-21T20:38:57.750Z,7.18
2022-11-21T20:41:27.760Z,7.03
2022-11-21T20:44:46.641Z,10.52
2022-11-21T20:46:42.929Z,6.22
2022-11-21T20:49:10.247Z,5.50
2022-11-21T20:54:24.168Z,8.30
2022-11-21T20:56:50.875Z,16.92
2022-11-21T20:59:17.636Z,14.15
2022-11-21T21:01:44.426Z,8.38
2022-11-21T21:04:12.089Z,7.63
2022-11-21T21:06:39.752Z,4.65
2022-11-21T21:09:06.606Z,4.72
2022-11-21T21:14:21.264Z,5.65
2022-11-21T21:16:48.317Z,4.63
2022-11-21T21:19:15.294Z,4.90
2022-11-21T21:21:42.087Z,6.45
2022-11-21T21:24:11.315Z,6.03
2022-11-21T21:26:42.825Z,9.93
2022-11-21T21:29:12.030Z,7.65
2022-11-21T21:31:39.179Z,10.63
2022-11-21T21:34:06.105Z,11.32
2022-11-21T21:36:33.175Z,10.73
2022-11-21T21:39:00.964Z,9.18
2022-11-21T21:41:29.409Z,10.18
2022-11-21T21:43:57.496Z,7.95
2022-11-21T21:46:26.748Z,7.63
2022-11-21T21:48:55.963Z,5.60
2022-11-21T21:51:30.984Z,6.13
2022-11-21T21:53:59.567Z,8.75
2022-11-21T21:56:28.173Z,6.00
2022-11-21T21:58:57.031Z,10.65
2022-11-21T22:01:29.380Z,7.28
2022-11-21T22:03:58.779Z,7.75
2022-11-21T22:06:26.282Z,8.68
2022-11-21T22:08:55.094Z,8.45
2022-11-21T22:11:23.873Z,11.18
2022-11-21T22:14:01.032Z,9.13
2022-11-21T22:16:28.544Z,5.63
2022-11-21T22:18:55.898Z,6.82
2022-11-21T22:21:24.641Z,7.75
2022-11-21T22:24:17.686Z,6.55
2022-11-21T22:26:38.390Z,6.25
2022-11-21T22:29:06.197Z,8.02
2022-11-21T22:31:33.441Z,7.32
2022-11-21T22:34:01.050Z,6.97
2022-11-21T22:36:27.748Z,8.65
2022-11-21T22:38:55.717Z,8.60
2022-11-21T22:41:24.870Z,8.73
2022-11-21T22:43:57.354Z,7.50
2022-11-21T22:46:25.973Z,6.93
2022-11-21T22:48:52.960Z,5.32
2022-11-21T22:51:22.445Z,7.03
2022-11-21T22:53:50.251Z,9.63
2022-11-21T22:56:19.168Z,10.07
2022-11-21T22:58:46.641Z,7.32
2022-11-21T23:01:14.533Z,7.93
2022-11-21T23:03:42.729Z,5.85
2022-11-21T23:06:13.772Z,7.18
2022-11-21T23:08:41.548Z,6.85
2022-11-21T23:11:14.055Z,6.32
2022-11-21T23:13:42.988Z,7.72
2022-11-21T23:16:10.962Z,5.55
2022-11-21T23:18:37.843Z,8.20
2022-11-21T23:21:05.067Z,6.80
2022-11-21T23:23:32.297Z,6.32
2022-11-21T23:25:59.280Z,7.68
2022-11-21T23:28:26.606Z,5.32
2022-11-21T23:30:53.367Z,8.00
2022-11-21T23:33:20.220Z,6.50
2022-11-21T23:35:47.503Z,7.50
2022-11-21T23:38:15.880Z,6.80
2022-11-21T23:40:44.396Z,7.32
2022-11-21T23:43:11.194Z,7.15
2022-11-21T23:45:38.056Z,6.43
2022-11-21T23:48:04.988Z,7.50
2022-11-21T23:50:31.675Z,7.45
2022-11-21T23:52:58.406Z,6.55
2022-11-21T23:55:25.132Z,5.30
2022-11-21T23:57:51.908Z,5.30
